Time;durP1;ratioP1;P1;durP2;ratioP2;P2;SDS_P1;SDS_P2;PMS_P1;PMS_P2;Temp;Humidity;BMP_temperature;BMP_pressure;BME280_temperature;BME280_humidity;BME280_pressure;Samples;Min_cycle;Max_cycle;Signal;HPM_P1;HPM_P2
2023/09/30 00:00:02;;;;;;;13.80;10.70;;;;;;;11.97;100.00;98245.39;109736;1286;22208;-84
2023/09/30 00:02:57;;;;;;;16.00;11.10;;;;;;;11.97;100.00;98246.53;109814;1271;22209;-83
2023/09/30 00:05:25;;;;;;;11.30;10.10;;;;;;;11.98;100.00;98249.31;109723;1280;22248;-84
2023/09/30 00:07:53;;;;;;;11.80;9.90;;;;;;;11.99;100.00;98250.27;109754;1281;22212;-84
2023/09/30 00:10:21;;;;;;;12.60;10.60;;;;;;;11.99;100.00;98246.64;109769;1286;22585;-84
2023/09/30 00:12:49;;;;;;;13.10;11.30;;;;;;;12.00;100.00;98252.29;109788;1286;22355;-84
2023/09/30 00:15:17;;;;;;;16.20;11.20;;;;;;;12.04;100.00;98249.10;109662;1286;22706;-84
2023/09/30 00:17:47;;;;;;;12.10;10.90;;;;;;;12.03;100.00;98248.58;109775;1280;23187;-84
2023/09/30 00:20:15;;;;;;;13.80;11.30;;;;;;;12.02;100.00;98248.85;109755;1271;22219;-83
2023/09/30 00:22:43;;;;;;;12.10;10.70;;;;;;;11.99;100.00;98249.34;109727;1280;22243;-84
2023/09/30 00:25:11;;;;;;;12.60;10.70;;;;;;;11.95;100.00;98250.04;109784;1287;22978;-84
2023/09/30 00:27:39;;;;;;;12.00;9.90;;;;;;;11.98;100.00;98246.41;109771;1282;22400;-84
2023/09/30 00:30:07;;;;;;;11.80;9.90;;;;;;;11.99;100.00;98245.25;109743;1286;22211;-84
2023/09/30 00:32:35;;;;;;;11.00;9.90;;;;;;;11.95;100.00;98248.29;109572;1264;258550;-84
2023/09/30 00:35:04;;;;;;;15.60;10.60;;;;;;;11.86;100.00;98244.60;109787;1286;22967;-84
2023/09/30 00:37:33;;;;;;;13.60;10.90;;;;;;;11.78;100.00;98241.27;109723;1286;22331;-84
2023/09/30 00:40:01;;;;;;;14.50;11.20;;;;;;;11.76;100.00;98240.45;109702;1287;22913;-86
2023/09/30 00:42:31;;;;;;;12.00;10.50;;;;;;;11.76;100.00;98238.77;109790;1280;22204;-84
2023/09/30 00:44:58;;;;;;;12.70;10.70;;;;;;;11.78;100.00;98237.56;109803;1286;22202;-84
2023/09/30 00:47:27;;;;;;;14.70;10.40;;;;;;;11.80;100.00;98229.31;109800;1286;23077;-84
2023/09/30 00:49:55;;;;;;;11.80;9.70;;;;;;;11.80;100.00;98228.02;109769;1286;22250;-84
2023/09/30 00:52:23;;;;;;;12.60;11.10;;;;;;;11.78;100.00;98225.77;109801;1280;22222;-84
2023/09/30 00:54:54;;;;;;;13.30;10.50;;;;;;;11.80;100.00;98225.10;109747;1286;22141;-84
2023/09/30 00:57:22;;;;;;;14.90;10.60;;;;;;;11.76;100.00;98227.44;109814;1286;22233;-84
2023/09/30 00:59:51;;;;;;;15.10;10.40;;;;;;;11.76;100.00;98225.98;109817;1286;22280;-84
2023/09/30 01:02:20;;;;;;;11.40;10.30;;;;;;;11.76;100.00;98222.53;109746;1286;22269;-84
2023/09/30 01:04:48;;;;;;;14.40;9.50;;;;;;;11.76;100.00;98223.00;109686;1286;22349;-84
2023/09/30 01:07:16;;;;;;;14.00;10.50;;;;;;;11.79;100.00;98221.12;109706;1281;22319;-84
2023/09/30 01:09:44;;;;;;;12.20;8.70;;;;;;;11.83;100.00;98220.17;109723;1286;22163;-84
2023/09/30 01:12:12;;;;;;;13.30;10.60;;;;;;;11.87;100.00;98221.88;109803;1283;22360;-84
2023/09/30 01:14:43;;;;;;;13.70;10.70;;;;;;;11.86;100.00;98217.96;109740;1286;22203;-84
2023/09/30 01:17:13;;;;;;;18.00;9.90;;;;;;;11.87;100.00;98219.56;109762;1281;22872;-84
2023/09/30 01:19:44;;;;;;;14.40;10.30;;;;;;;11.87;100.00;98218.80;109785;1276;22669;-84
2023/09/30 01:22:12;;;;;;;13.70;9.10;;;;;;;11.89;100.00;98213.36;109853;1286;22287;-85
2023/09/30 01:24:41;;;;;;;12.20;10.60;;;;;;;11.93;100.00;98215.02;109982;1286;22219;-84
2023/09/30 01:27:10;;;;;;;11.40;9.40;;;;;;;11.98;100.00;98215.17;109973;1287;22126;-84
2023/09/30 01:33:44;;;;;;;12.60;10.60;;;;;;;11.99;100.00;98215.39;109751;1287;22149;-85
2023/09/30 01:36:12;;;;;;;11.70;9.70;;;;;;;12.04;100.00;98216.75;109751;1287;22230;-84
2023/09/30 01:38:40;;;;;;;10.80;9.20;;;;;;;12.15;100.00;98214.73;109731;1287;22210;-84
2023/09/30 01:41:08;;;;;;;12.00;9.30;;;;;;;12.20;100.00;98214.70;109751;1281;22155;-84
2023/09/30 01:43:37;;;;;;;13.10;9.30;;;;;;;12.16;100.00;98214.40;109746;1284;22434;-84
2023/09/30 01:46:06;;;;;;;12.20;9.20;;;;;;;12.19;100.00;98212.87;109786;1286;22215;-84
2023/09/30 01:48:34;;;;;;;11.50;9.50;;;;;;;12.19;100.00;98217.58;109742;1286;23050;-84
2023/09/30 01:51:03;;;;;;;13.50;10.30;;;;;;;12.18;100.00;98216.56;109798;1281;22107;-84
2023/09/30 01:53:30;;;;;;;11.50;8.90;;;;;;;12.18;100.00;98212.13;109790;1279;22267;-84
2023/09/30 01:56:00;;;;;;;12.80;9.90;;;;;;;12.16;100.00;98214.12;109796;1286;22294;-84
2023/09/30 01:58:28;;;;;;;12.40;9.30;;;;;;;12.18;100.00;98210.80;109727;1287;22219;-84
2023/09/30 02:01:04;;;;;;;10.80;8.80;;;;;;;12.17;100.00;98212.21;109707;1284;22294;-84
2023/09/30 02:03:32;;;;;;;11.30;8.60;;;;;;;12.21;100.00;98213.77;109767;1286;22381;-84
2023/09/30 02:06:00;;;;;;;11.00;8.60;;;;;;;12.23;100.00;98211.80;109754;1286;22206;-84
2023/09/30 02:08:28;;;;;;;12.30;9.40;;;;;;;12.29;100.00;98207.33;109800;1279;22104;-83
2023/09/30 02:10:56;;;;;;;10.90;9.30;;;;;;;12.28;100.00;98205.45;109785;1286;22214;-83
2023/09/30 02:13:24;;;;;;;11.50;9.10;;;;;;;12.25;100.00;98202.55;109795;1286;22335;-83
2023/09/30 02:15:55;;;;;;;10.20;9.00;;;;;;;12.23;100.00;98201.75;109733;1280;22193;-84
2023/09/30 02:18:23;;;;;;;13.00;9.80;;;;;;;12.24;100.00;98204.88;109791;1286;22201;-83
2023/09/30 02:20:53;;;;;;;10.60;8.80;;;;;;;12.24;100.00;98200.92;109785;1286;22277;-83
2023/09/30 02:23:21;;;;;;;11.70;8.80;;;;;;;12.27;100.00;98203.76;109722;1287;22262;-83
2023/09/30 02:25:49;;;;;;;13.00;8.50;;;;;;;12.28;100.00;98201.27;109766;1286;22354;-84
2023/09/30 02:28:17;;;;;;;11.70;8.80;;;;;;;12.32;100.00;98198.45;109805;1279;22307;-83
2023/09/30 02:30:45;;;;;;;14.00;9.80;;;;;;;12.36;100.00;98195.19;109738;1286;23275;-83
2023/09/30 02:33:13;;;;;;;13.20;8.70;;;;;;;12.40;100.00;98198.92;109810;1271;22339;-83
2023/09/30 02:35:45;;;;;;;10.90;8.80;;;;;;;12.44;100.00;98198.95;109731;1277;22322;-84
2023/09/30 02:38:17;;;;;;;11.70;9.30;;;;;;;12.45;100.00;98199.51;109734;1273;22220;-83
2023/09/30 02:40:48;;;;;;;12.10;10.30;;;;;;;12.44;100.00;98198.58;109895;1273;22217;-83
2023/09/30 02:43:16;;;;;;;9.90;8.80;;;;;;;12.44;100.00;98196.08;109659;1286;22236;-84
2023/09/30 02:45:44;;;;;;;12.20;8.50;;;;;;;12.47;100.00;98199.52;109745;1286;22386;-83
2023/09/30 02:48:13;;;;;;;10.10;7.70;;;;;;;12.53;100.00;98201.30;109802;1286;22196;-84
2023/09/30 02:50:44;;;;;;;14.30;8.50;;;;;;;12.56;100.00;98200.85;109766;1281;22425;-84
2023/09/30 02:53:13;;;;;;;11.10;8.30;;;;;;;12.60;100.00;98197.14;109744;1285;22207;-84
2023/09/30 02:55:42;;;;;;;12.70;8.70;;;;;;;12.62;100.00;98197.05;109818;1281;22990;-83
2023/09/30 02:58:11;;;;;;;14.00;9.80;;;;;;;12.65;100.00;98194.86;109751;1281;22218;-84
2023/09/30 03:00:39;;;;;;;10.50;9.30;;;;;;;12.68;100.00;98193.61;109791;1279;22159;-84
2023/09/30 03:03:08;;;;;;;14.40;10.40;;;;;;;12.66;100.00;98193.60;109811;1286;22196;-84
2023/09/30 03:05:36;;;;;;;13.50;8.50;;;;;;;12.64;100.00;98192.78;109708;1286;22203;-84
2023/09/30 03:08:05;;;;;;;16.80;8.80;;;;;;;12.66;100.00;98195.73;109798;1286;22098;-84
2023/09/30 03:10:32;;;;;;;10.30;9.00;;;;;;;12.69;100.00;98196.67;109694;1287;22238;-84
2023/09/30 03:13:03;;;;;;;9.60;8.40;;;;;;;12.69;100.00;98192.06;109759;1283;22336;-84
2023/09/30 03:15:31;;;;;;;13.00;8.70;;;;;;;12.70;100.00;98192.47;109741;1286;22241;-84
2023/09/30 03:17:59;;;;;;;11.80;8.80;;;;;;;12.72;100.00;98188.70;109769;1286;22217;-84
2023/09/30 03:20:28;;;;;;;12.00;9.10;;;;;;;12.77;100.00;98185.83;109693;1277;22867;-84
2023/09/30 03:22:56;;;;;;;13.10;10.30;;;;;;;12.77;100.00;98191.37;109782;1274;23282;-84
2023/09/30 03:25:24;;;;;;;12.80;8.90;;;;;;;12.78;100.00;98183.30;109785;1280;22927;-84
2023/09/30 03:27:52;;;;;;;13.20;9.30;;;;;;;12.84;100.00;98178.76;109748;1286;22228;-83
2023/09/30 03:30:21;;;;;;;11.10;8.50;;;;;;;12.93;100.00;98180.80;109765;1280;22913;-83
2023/09/30 03:32:49;;;;;;;10.60;7.90;;;;;;;12.94;100.00;98183.27;109787;1281;22187;-84
2023/09/30 03:35:17;;;;;;;10.20;8.00;;;;;;;12.94;100.00;98182.36;109734;1286;23045;-84
2023/09/30 03:37:46;;;;;;;10.20;8.50;;;;;;;12.94;100.00;98183.16;109795;1280;22176;-84
2023/09/30 03:40:18;;;;;;;14.60;9.80;;;;;;;12.94;100.00;98187.71;109720;1287;22213;-83
2023/09/30 03:42:49;;;;;;;10.80;8.60;;;;;;;12.94;100.00;98187.92;109719;1281;22993;-84
2023/09/30 03:45:18;;;;;;;12.90;7.70;;;;;;;12.96;100.00;98190.91;109657;1285;22164;-84
2023/09/30 03:47:47;;;;;;;10.20;8.30;;;;;;;12.99;100.00;98195.77;109762;1277;22405;-84
2023/09/30 03:50:18;;;;;;;11.30;7.90;;;;;;;12.98;100.00;98195.04;109702;1287;22218;-84
2023/09/30 03:52:47;;;;;;;10.50;7.60;;;;;;;12.98;100.00;98196.66;109803;1277;22435;-83
2023/09/30 03:55:17;;;;;;;10.50;8.40;;;;;;;13.00;100.00;98198.92;109767;1284;23472;-83
2023/09/30 03:57:50;;;;;;;9.60;7.70;;;;;;;13.03;100.00;98202.98;109803;1280;22144;-83
2023/09/30 04:00:19;;;;;;;9.20;7.90;;;;;;;13.04;100.00;98200.96;109789;1286;22237;-83
2023/09/30 04:02:49;;;;;;;18.70;9.60;;;;;;;13.05;100.00;98198.96;109729;1284;22118;-83
2023/09/30 04:05:24;;;;;;;11.10;9.20;;;;;;;13.04;100.00;98199.49;109741;1280;22377;-83
2023/09/30 04:07:52;;;;;;;9.90;8.50;;;;;;;13.06;100.00;98203.06;109804;1286;22222;-84
2023/09/30 04:10:21;;;;;;;9.40;8.40;;;;;;;13.06;100.00;98204.15;109708;1286;22233;-84
2023/09/30 04:12:50;;;;;;;9.50;7.90;;;;;;;13.06;100.00;98203.98;109809;1286;22217;-84
2023/09/30 04:15:18;;;;;;;10.90;8.00;;;;;;;13.10;100.00;98202.37;109727;1284;22191;-84
2023/09/30 04:17:48;;;;;;;12.20;9.10;;;;;;;13.19;100.00;98203.70;109808;1268;22188;-84
2023/09/30 04:20:20;;;;;;;16.00;8.70;;;;;;;13.25;100.00;98207.17;109811;1280;22236;-86
2023/09/30 04:22:49;;;;;;;11.10;9.10;;;;;;;13.28;100.00;98206.34;109766;1287;22967;-85
2023/09/30 04:25:18;;;;;;;12.90;8.50;;;;;;;13.31;100.00;98212.50;109713;1286;22162;-85
2023/09/30 04:27:48;;;;;;;10.80;9.00;;;;;;;13.29;100.00;98216.98;109829;1275;22271;-85
2023/09/30 04:30:18;;;;;;;14.20;9.70;;;;;;;13.29;100.00;98219.47;109720;1286;22296;-84
2023/09/30 04:32:46;;;;;;;11.40;8.70;;;;;;;13.28;100.00;98215.70;109748;1271;22333;-84
2023/09/30 04:35:15;;;;;;;10.60;9.00;;;;;;;13.34;100.00;98221.13;109809;1274;22204;-84
2023/09/30 04:37:43;;;;;;;10.80;9.00;;;;;;;13.39;100.00;98224.05;109794;1286;22314;-84
2023/09/30 04:40:19;;;;;;;13.00;9.50;;;;;;;13.44;100.00;98224.17;109726;1286;22857;-83
2023/09/30 04:42:48;;;;;;;11.30;9.50;;;;;;;13.51;100.00;98230.31;109778;1287;22216;-83
2023/09/30 04:45:16;;;;;;;11.60;10.40;;;;;;;13.54;100.00;98235.96;109709;1286;22206;-85
2023/09/30 04:47:58;;;;;;;13.30;11.90;;;;;;;13.56;100.00;98238.93;109810;1279;22830;-83
2023/09/30 04:50:25;;;;;;;14.60;11.60;;;;;;;13.66;100.00;98241.73;109723;1286;22201;-83
2023/09/30 04:52:53;;;;;;;13.30;10.90;;;;;;;13.80;100.00;98239.52;109818;1283;22132;-85
2023/09/30 04:55:21;;;;;;;13.90;11.80;;;;;;;13.94;100.00;98243.30;109766;1281;22169;-83
2023/09/30 04:57:50;;;;;;;18.20;12.90;;;;;;;14.06;100.00;98246.73;109739;1287;22826;-83
2023/09/30 05:00:25;;;;;;;17.80;11.60;;;;;;;14.15;100.00;98246.45;109792;1280;22710;-83
2023/09/30 05:02:55;;;;;;;14.00;12.40;;;;;;;14.20;100.00;98244.72;109736;1284;22204;-83
2023/09/30 05:05:24;;;;;;;17.60;12.20;;;;;;;14.26;100.00;98241.30;109727;1280;22123;-84
2023/09/30 05:07:57;;;;;;;15.30;12.50;;;;;;;14.32;100.00;98238.75;109805;1286;22139;-84
2023/09/30 05:10:25;;;;;;;18.10;12.20;;;;;;;14.36;100.00;98249.36;109768;1272;22209;-84
2023/09/30 05:12:54;;;;;;;14.50;11.90;;;;;;;14.39;100.00;98247.67;109953;1280;22163;-84
2023/09/30 05:15:22;;;;;;;17.30;11.40;;;;;;;14.40;100.00;98251.31;109958;1286;22209;-85
2023/09/30 05:17:51;;;;;;;13.70;11.80;;;;;;;14.45;100.00;98251.61;109949;1286;22197;-84
2023/09/30 05:20:19;;;;;;;15.30;12.10;;;;;;;14.50;100.00;98256.39;109962;1286;22127;-83
2023/09/30 05:22:48;;;;;;;26.40;12.20;;;;;;;14.56;100.00;98261.85;109820;1286;22106;-84
2023/09/30 05:25:17;;;;;;;15.10;12.10;;;;;;;14.57;100.00;98264.30;109799;1286;22199;-84
2023/09/30 05:27:49;;;;;;;16.60;12.70;;;;;;;14.59;100.00;98260.23;109734;1286;22128;-84
2023/09/30 05:30:19;;;;;;;16.70;12.30;;;;;;;14.60;100.00;98266.51;109732;1286;22168;-84
2023/09/30 05:32:47;;;;;;;17.30;11.20;;;;;;;14.56;100.00;98267.75;109737;1284;22383;-84
2023/09/30 05:35:16;;;;;;;13.80;11.40;;;;;;;14.55;100.00;98266.59;109730;1276;22300;-84
2023/09/30 05:37:45;;;;;;;16.20;12.60;;;;;;;14.56;100.00;98268.03;109867;1284;22223;-84
2023/09/30 05:41:06;;;;;;;14.40;11.30;;;;;;;14.62;100.00;98268.55;109808;1286;22154;-84
2023/09/30 05:43:34;;;;;;;19.40;12.60;;;;;;;14.71;100.00;98273.04;109786;1284;23290;-84
2023/09/30 05:46:02;;;;;;;17.30;12.60;;;;;;;14.76;100.00;98276.83;109726;1272;22417;-83
2023/09/30 05:48:31;;;;;;;14.10;12.10;;;;;;;14.79;100.00;98278.19;109691;1286;22171;-84
2023/09/30 05:50:59;;;;;;;17.20;11.80;;;;;;;14.83;100.00;98284.97;109795;1286;22210;-84
2023/09/30 05:53:28;;;;;;;17.20;12.60;;;;;;;14.88;100.00;98285.80;109737;1271;22899;-84
2023/09/30 05:55:57;;;;;;;15.40;11.60;;;;;;;14.91;100.00;98286.10;109726;1283;22289;-84
2023/09/30 05:58:26;;;;;;;17.00;13.20;;;;;;;14.93;100.00;98290.20;109798;1287;22178;-84
2023/09/30 06:00:54;;;;;;;18.30;11.90;;;;;;;14.95;100.00;98293.83;109784;1287;22286;-84
2023/09/30 06:03:22;;;;;;;19.20;12.50;;;;;;;15.01;100.00;98296.48;109720;1284;22239;-84
2023/09/30 06:05:51;;;;;;;19.10;12.20;;;;;;;15.05;100.00;98301.41;109758;1287;22788;-84
2023/09/30 06:08:20;;;;;;;13.80;11.50;;;;;;;15.10;100.00;98304.83;109793;1280;22223;-84
2023/09/30 06:10:54;;;;;;;13.80;11.70;;;;;;;15.12;100.00;98302.05;109762;1286;23091;-84
2023/09/30 06:13:22;;;;;;;15.20;11.70;;;;;;;15.14;100.00;98302.71;109772;1286;22200;-84
2023/09/30 06:15:50;;;;;;;20.00;12.50;;;;;;;15.16;100.00;98303.52;109788;1287;22703;-84
2023/09/30 06:18:18;;;;;;;14.40;11.20;;;;;;;15.21;100.00;98310.58;109806;1280;22384;-84
2023/09/30 06:20:46;;;;;;;17.60;12.30;;;;;;;15.28;100.00;98311.19;109733;1287;22434;-84
2023/09/30 06:23:15;;;;;;;15.90;11.40;;;;;;;15.32;100.00;98317.35;109748;1284;22101;-85
2023/09/30 06:25:43;;;;;;;16.70;12.30;;;;;;;15.35;100.00;98316.88;109774;1287;22177;-85
2023/09/30 06:28:13;;;;;;;17.90;12.60;;;;;;;15.36;100.00;98319.63;109772;1287;22144;-86
2023/09/30 06:30:42;;;;;;;14.90;13.10;;;;;;;15.36;100.00;98320.10;109773;1287;22213;-85
2023/09/30 06:33:14;;;;;;;20.30;12.80;;;;;;;15.37;100.00;98321.86;109786;1284;22226;-84
2023/09/30 06:35:50;;;;;;;16.20;12.90;;;;;;;15.39;100.00;98323.94;109754;1281;22912;-85
2023/09/30 06:38:19;;;;;;;18.10;11.60;;;;;;;15.42;100.00;98326.42;109705;1283;22203;-86
2023/09/30 06:40:47;;;;;;;15.10;12.30;;;;;;;15.43;100.00;98330.19;109767;1280;22113;-83
2023/09/30 06:43:15;;;;;;;18.10;12.20;;;;;;;15.42;100.00;98330.61;109732;1287;23315;-83
2023/09/30 06:45:44;;;;;;;14.60;12.70;;;;;;;15.40;100.00;98332.70;109703;1273;23394;-82
2023/09/30 06:48:12;;;;;;;13.60;11.40;;;;;;;15.39;100.00;98334.09;109723;1287;22335;-82
2023/09/30 06:50:48;;;;;;;13.30;11.20;;;;;;;15.39;100.00;98337.15;109782;1277;22436;-83
2023/09/30 06:53:18;;;;;;;18.00;11.40;;;;;;;15.43;100.00;98335.58;109762;1283;22314;-83
2023/09/30 06:55:46;;;;;;;16.90;13.20;;;;;;;15.48;100.00;98337.13;109742;1276;23013;-83
2023/09/30 06:58:18;;;;;;;14.90;12.70;;;;;;;15.53;100.00;98336.61;109780;1284;22250;-83
2023/09/30 07:00:51;;;;;;;15.60;11.90;;;;;;;15.59;100.00;98343.86;109773;1287;22189;-82
2023/09/30 07:03:19;;;;;;;14.30;11.30;;;;;;;15.66;100.00;98348.38;109711;1284;22198;-82
2023/09/30 07:05:54;;;;;;;14.40;12.20;;;;;;;15.69;100.00;98350.53;109796;1284;22178;-82
2023/09/30 07:08:22;;;;;;;17.20;11.60;;;;;;;15.74;100.00;98352.36;109815;1287;22821;-83
2023/09/30 07:10:52;;;;;;;19.50;14.20;;;;;;;15.78;100.00;98353.24;109789;1286;22929;-83
2023/09/30 07:13:20;;;;;;;20.30;13.90;;;;;;;15.87;100.00;98364.89;109752;1284;22219;-83
2023/09/30 07:15:49;;;;;;;19.30;14.80;;;;;;;15.85;100.00;98367.52;109777;1286;22202;-83
2023/09/30 07:18:17;;;;;;;19.30;17.20;;;;;;;15.84;100.00;98366.72;109765;1280;22321;-83
2023/09/30 07:20:46;;;;;;;21.40;19.00;;;;;;;15.86;100.00;98366.27;109679;1273;22307;-83
2023/09/30 07:23:14;;;;;;;20.80;16.60;;;;;;;15.89;100.00;98366.23;109756;1280;22282;-82
2023/09/30 07:25:47;;;;;;;18.60;16.80;;;;;;;15.93;100.00;98371.65;109768;1286;22295;-83
2023/09/30 07:28:15;;;;;;;18.70;16.50;;;;;;;15.94;100.00;98375.11;109775;1287;22229;-85
2023/09/30 07:30:44;;;;;;;17.00;15.20;;;;;;;15.96;100.00;98379.40;109764;1279;22381;-84
2023/09/30 07:33:16;;;;;;;20.00;16.30;;;;;;;15.98;100.00;98381.29;109726;1286;22976;-84
2023/09/30 07:35:44;;;;;;;18.70;16.40;;;;;;;16.04;100.00;98378.30;109789;1279;22209;-83
2023/09/30 07:38:15;;;;;;;20.00;16.00;;;;;;;16.11;100.00;98380.46;109810;1282;22152;-84
2023/09/30 07:40:43;;;;;;;19.70;16.40;;;;;;;16.18;100.00;98383.70;109767;1280;22321;-78
2023/09/30 07:43:12;;;;;;;25.70;23.00;;;;;;;16.25;100.00;98385.32;109743;1276;22958;-77
2023/09/30 07:45:40;;;;;;;17.60;15.60;;;;;;;16.33;100.00;98389.55;109749;1283;22234;-78
2023/09/30 07:48:09;;;;;;;18.00;16.10;;;;;;;16.42;100.00;98385.52;109743;1280;22132;-78
2023/09/30 07:50:38;;;;;;;17.20;15.50;;;;;;;16.48;100.00;98390.23;109758;1276;22549;-78
2023/09/30 07:53:07;;;;;;;19.20;15.80;;;;;;;16.54;100.00;98389.23;109764;1286;22388;-78
2023/09/30 07:55:35;;;;;;;20.80;15.90;;;;;;;16.54;100.00;98388.84;109780;1273;22193;-78
2023/09/30 07:58:03;;;;;;;19.20;17.10;;;;;;;16.51;100.00;98389.59;109753;1280;22231;-81
2023/09/30 08:00:33;;;;;;;20.60;18.20;;;;;;;16.50;100.00;98392.33;109749;1286;22336;-80
2023/09/30 08:03:01;;;;;;;19.50;17.40;;;;;;;16.50;100.00;98392.32;109752;1279;22337;-81
2023/09/30 08:05:30;;;;;;;21.50;18.90;;;;;;;16.50;100.00;98396.33;109752;1286;22202;-82
2023/09/30 08:07:57;;;;;;;22.90;18.80;;;;;;;16.50;100.00;98399.33;109774;1276;22261;-82
2023/09/30 08:10:25;;;;;;;20.70;17.90;;;;;;;16.47;100.00;98406.90;109776;1279;22254;-82
2023/09/30 08:12:56;;;;;;;23.50;20.80;;;;;;;16.44;100.00;98406.00;109786;1273;22185;-82
2023/09/30 08:15:25;;;;;;;22.00;18.70;;;;;;;16.44;100.00;98407.79;109772;1276;22311;-81
2023/09/30 08:17:53;;;;;;;20.70;18.50;;;;;;;16.45;100.00;98407.23;109757;1280;22214;-83
2023/09/30 08:20:21;;;;;;;21.40;18.50;;;;;;;16.47;100.00;98408.21;109785;1280;22236;-79
2023/09/30 08:22:49;;;;;;;19.30;17.40;;;;;;;16.51;100.00;98410.10;109757;1280;22162;-78
2023/09/30 08:25:17;;;;;;;19.30;17.30;;;;;;;16.54;100.00;98412.32;109767;1283;22207;-79
2023/09/30 08:27:49;;;;;;;21.60;19.40;;;;;;;16.54;100.00;98413.04;109719;1285;22155;-79
2023/09/30 08:30:18;;;;;;;21.10;18.80;;;;;;;16.52;100.00;98414.17;109759;1280;23044;-78
2023/09/30 08:32:46;;;;;;;20.50;18.40;;;;;;;16.49;100.00;98416.23;109772;1279;22356;-79
2023/09/30 08:35:15;;;;;;;19.70;17.70;;;;;;;16.48;100.00;98413.23;109748;1274;22169;-78
2023/09/30 08:37:43;;;;;;;19.70;17.60;;;;;;;16.47;100.00;98411.67;109775;1279;22163;-78
2023/09/30 08:40:12;;;;;;;21.60;17.80;;;;;;;16.46;100.00;98415.41;109747;1279;22332;-76
2023/09/30 08:42:40;;;;;;;22.10;17.60;;;;;;;16.42;100.00;98415.70;109771;1286;22207;-78
2023/09/30 08:45:12;;;;;;;20.30;18.30;;;;;;;16.39;100.00;98412.84;109750;1280;22209;-78
2023/09/30 08:47:40;;;;;;;18.10;16.00;;;;;;;16.37;100.00;98414.15;109652;1280;22360;-78
2023/09/30 08:50:10;;;;;;;18.40;16.20;;;;;;;16.30;100.00;98412.11;109733;1286;22196;-78
2023/09/30 08:52:40;;;;;;;18.60;15.50;;;;;;;16.28;100.00;98412.40;109583;1277;22926;-78
2023/09/30 08:55:09;;;;;;;22.60;15.80;;;;;;;16.24;100.00;98412.00;109564;1283;23091;-77
2023/09/30 08:57:41;;;;;;;16.70;14.90;;;;;;;16.19;100.00;98412.17;109741;1279;22910;-77
2023/09/30 09:00:11;;;;;;;17.10;14.70;;;;;;;16.11;100.00;98407.03;109708;1286;23155;-77
2023/09/30 09:02:40;;;;;;;17.70;14.10;;;;;;;16.11;100.00;98409.56;109700;1280;22176;-77
2023/09/30 09:05:09;;;;;;;20.10;15.50;;;;;;;16.04;100.00;98408.05;109713;1280;22232;-77
2023/09/30 09:07:37;;;;;;;16.70;14.90;;;;;;;15.99;100.00;98406.27;109766;1286;22238;-77
2023/09/30 09:10:13;;;;;;;20.40;14.60;;;;;;;15.93;100.00;98408.41;109778;1279;23556;-77
2023/09/30 09:12:42;;;;;;;19.60;15.40;;;;;;;15.90;100.00;98408.58;109756;1280;22216;-78
2023/09/30 09:15:23;;;;;;;24.90;15.90;;;;;;;15.86;100.00;98411.30;109745;1280;22893;-78
2023/09/30 09:17:52;;;;;;;20.50;16.40;;;;;;;15.85;100.00;98405.98;109778;1283;22211;-78
2023/09/30 09:20:25;;;;;;;18.30;16.20;;;;;;;15.83;100.00;98406.11;109798;1280;22858;-82
2023/09/30 09:22:55;;;;;;;17.90;16.10;;;;;;;15.80;100.00;98406.14;109714;1279;22219;-82
2023/09/30 09:25:24;;;;;;;20.30;18.20;;;;;;;15.80;100.00;98405.89;109704;1273;22116;-83
2023/09/30 09:27:53;;;;;;;19.10;17.30;;;;;;;15.80;100.00;98403.78;109790;1283;22330;-84
2023/09/30 09:30:26;;;;;;;18.90;16.40;;;;;;;15.82;100.00;98408.38;109768;1276;22296;-82
2023/09/30 09:32:57;;;;;;;20.50;18.30;;;;;;;15.83;100.00;98407.88;109772;1280;22197;-79
2023/09/30 09:35:28;;;;;;;28.10;20.70;;;;;;;15.83;100.00;98404.70;109773;1280;22132;-79
2023/09/30 09:38:02;;;;;;;21.90;19.60;;;;;;;15.87;100.00;98405.95;109616;1279;22210;-79
2023/09/30 09:40:32;;;;;;;23.00;20.50;;;;;;;15.89;100.00;98405.21;109765;1287;22718;-80
2023/09/30 09:43:04;;;;;;;26.50;23.60;;;;;;;15.92;100.00;98410.62;109627;1280;22292;-78
2023/09/30 09:45:35;;;;;;;22.70;20.50;;;;;;;15.94;100.00;98411.95;109719;1280;22954;-78
2023/09/30 09:48:04;;;;;;;26.90;24.10;;;;;;;15.94;100.00;98415.89;109733;1283;22190;-77
2023/09/30 09:50:35;;;;;;;30.20;27.30;;;;;;;15.91;100.00;98419.56;109753;1280;23031;-79
2023/09/30 09:53:04;;;;;;;28.90;26.40;;;;;;;15.86;100.00;98423.56;109704;1286;22299;-78
2023/09/30 09:55:33;;;;;;;25.00;22.30;;;;;;;15.81;100.00;98426.77;109743;1273;22369;-79
2023/09/30 09:58:03;;;;;;;22.30;20.00;;;;;;;15.73;100.00;98429.32;109755;1271;22282;-78
2023/09/30 10:00:33;;;;;;;19.00;16.80;;;;;;;15.70;100.00;98430.44;109700;1273;22982;-79
2023/09/30 10:03:02;;;;;;;20.50;16.70;;;;;;;15.64;100.00;98431.91;109769;1271;22175;-78
2023/09/30 10:05:31;;;;;;;19.10;17.40;;;;;;;15.54;100.00;98433.09;109757;1280;22211;-79
2023/09/30 10:08:06;;;;;;;20.40;15.90;;;;;;;15.49;100.00;98436.68;109734;1279;23151;-79
2023/09/30 10:10:38;;;;;;;18.30;16.40;;;;;;;15.47;100.00;98435.89;109754;1286;22870;-79
2023/09/30 10:13:06;;;;;;;17.90;16.10;;;;;;;15.46;100.00;98434.13;109748;1280;22981;-78
2023/09/30 10:15:37;;;;;;;19.10;17.30;;;;;;;15.43;100.00;98435.39;109748;1279;23208;-80
2023/09/30 10:18:10;;;;;;;20.60;18.60;;;;;;;15.43;100.00;98439.59;109745;1280;22230;-79
2023/09/30 10:20:48;;;;;;;20.00;18.00;;;;;;;15.41;100.00;98442.77;109762;1280;22341;-80
2023/09/30 10:23:17;;;;;;;;;;;;;;;15.40;100.00;98441.41;109718;1286;22391;-79
2023/09/30 10:25:47;;;;;;;19.20;17.20;;;;;;;15.38;100.00;98439.46;109753;1271;22270;-78
2023/09/30 10:28:44;;;;;;;18.30;16.60;;;;;;;15.36;100.00;98441.14;109692;1286;22478;-79
2023/09/30 10:31:18;;;;;;;16.00;14.50;;;;;;;15.32;100.00;98441.20;109749;1283;22932;-79
2023/09/30 10:33:59;;;;;;;16.70;15.20;;;;;;;15.31;100.00;98439.56;109743;1286;22220;-79
2023/09/30 10:36:33;;;;;;;16.80;15.20;;;;;;;15.35;100.00;98437.27;109754;1279;22244;-80
2023/09/30 10:39:02;;;;;;;15.00;13.60;;;;;;;15.40;100.00;98440.86;109752;1280;22294;-79
2023/09/30 10:41:40;;;;;;;14.10;12.80;;;;;;;15.41;100.00;98436.39;109766;1273;22106;-78
2023/09/30 10:44:26;;;;;;;12.10;11.00;;;;;;;15.43;100.00;98439.73;109687;1280;22592;-78
2023/09/30 10:46:57;;;;;;;11.00;10.00;;;;;;;15.44;100.00;98441.35;109763;1280;22234;-79
2023/09/30 10:49:25;;;;;;;11.50;10.40;;;;;;;15.45;100.00;98439.30;109751;1280;22837;-79
2023/09/30 10:51:54;;;;;;;12.70;11.40;;;;;;;15.47;100.00;98436.04;109712;1286;23371;-79
2023/09/30 10:54:24;;;;;;;13.20;12.00;;;;;;;15.47;100.00;98435.83;109736;1279;22233;-80
2023/09/30 10:56:53;;;;;;;12.40;11.20;;;;;;;15.49;100.00;98441.19;109751;1283;22230;-80
2023/09/30 10:59:32;;;;;;;12.60;11.40;;;;;;;15.54;100.00;98434.80;109723;1286;22860;-79
2023/09/30 11:01:59;;;;;;;12.10;11.00;;;;;;;15.59;100.00;98434.72;109742;1280;22853;-78
2023/09/30 11:04:28;;;;;;;11.70;10.60;;;;;;;15.66;100.00;98435.05;109746;1280;22986;-78
2023/09/30 11:06:58;;;;;;;11.80;10.70;;;;;;;15.71;100.00;98433.29;109734;1276;22240;-78
2023/09/30 11:09:27;;;;;;;11.20;10.10;;;;;;;15.76;100.00;98432.89;109626;1279;23000;-79
2023/09/30 11:11:54;;;;;;;12.00;10.20;;;;;;;15.83;100.00;98434.96;109770;1280;23029;-79
2023/09/30 11:14:24;;;;;;;12.50;11.40;;;;;;;15.87;100.00;98436.41;109760;1281;23220;-79
2023/09/30 11:17:01;;;;;;;12.30;11.20;;;;;;;15.95;100.00;98432.48;109735;1279;22262;-78
2023/09/30 11:19:50;;;;;;;12.60;11.40;;;;;;;16.00;100.00;98433.46;109720;1286;22208;-79